Danforth, South Dakota
Current Conditions -  °F | °C
As of 11:55 PM on Thursday 30 Oct 2014 (Local Time) from KHON Reporting Station
Clear Clear  
Wind Chill: 12°   Ceiling: Unl
Heat Index: 20°   Visibility: NA
Dew Point: 16°   Wind: 6mph
Humidity: 85%   Direction: 310°NW
Pressure: 30.56"   Gusts: NA
Location:  44.3714°N, 98.681°W
Report Text: KHON 310455Z AUTO 31005KT CLR M07/M09 A3056 RMK AO2 SLP364 T10671089 $
Loading
Personal Weather Stations






























Interactive Weather Map
Tropical Storm Tracking
New forecast layout! Learn more

10-Day Weather Forecast

Advertisements
Track Severe Weather on mobile